Time;durP1;ratioP1;P1;durP2;ratioP2;P2;SDS_P1;SDS_P2;PMS_P1;PMS_P2;Temp;Humidity;BMP_temperature;BMP_pressure;BME280_temperature;BME280_humidity;BME280_pressure;Samples;Min_cycle;Max_cycle;Signal;HPM_P1;HPM_P2
2021/12/05 00:16:58;;;;;;;6.70;2.20;;;;;;;2.43;99.99;98660.50;5001506;28;20219;-60
2021/12/05 00:20:37;;;;;;;7.00;2.23;;;;;;;2.54;100.00;98675.28;4991770;28;20203;-61
2021/12/05 00:23:09;;;;;;;6.03;2.10;;;;;;;2.54;100.00;98668.50;4980718;28;20222;-61
2021/12/05 00:25:35;;;;;;;5.33;2.57;;;;;;;2.47;100.00;98661.19;4991401;28;20579;-61
2021/12/05 00:44:43;;;;;;;8.33;2.53;;;;;;;2.48;100.00;98663.69;5000712;28;20276;-61
2021/12/05 00:47:12;;;;;;;9.60;2.87;;;;;;;2.65;100.00;98662.91;4997753;28;20188;-60
2021/12/05 00:57:53;;;;;;;7.30;2.37;;;;;;;2.88;100.00;98671.22;4997658;28;20207;-61
2021/12/05 01:15:52;;;;;;;11.57;2.20;;;;;;;3.09;100.00;98678.72;4998126;28;20214;-62
2021/12/05 01:18:19;;;;;;;6.57;2.30;;;;;;;3.07;100.00;98691.50;4998080;28;20248;-61
2021/12/05 01:20:52;;;;;;;8.30;2.07;;;;;;;3.18;100.00;98693.56;4993349;28;20229;-60
2021/12/05 01:23:30;;;;;;;6.13;2.47;;;;;;;3.22;100.00;98690.81;4996713;28;20672;-60
2021/12/05 01:31:35;;;;;;;5.27;2.50;;;;;;;3.45;99.54;98693.97;4996977;28;20241;-61
2021/12/05 02:01:16;;;;;;;10.17;2.60;;;;;;;3.17;100.00;98686.84;4989302;28;20283;-61
2021/12/05 02:11:50;;;;;;;7.60;2.23;;;;;;;2.88;100.00;98689.00;4995510;28;20229;-61
2021/12/05 02:41:29;;;;;;;9.07;3.30;;;;;;;2.54;100.00;98672.75;4994383;28;20234;-61
2021/12/05 02:44:03;;;;;;;8.47;2.03;;;;;;;2.52;100.00;98674.53;4996951;28;20579;-61
2021/12/05 02:46:30;;;;;;;8.63;1.93;;;;;;;2.34;100.00;98678.69;4993517;28;20771;-61
2021/12/05 02:49:03;;;;;;;8.87;2.80;;;;;;;2.39;100.00;98671.69;5008019;28;20688;-62
2021/12/05 02:51:30;;;;;;;4.10;2.30;;;;;;;2.46;100.00;98669.72;5001237;28;20222;-61
2021/12/05 02:54:16;;;;;;;5.47;2.90;;;;;;;2.47;100.00;98669.66;4997042;28;20173;-62
2021/12/05 02:56:47;;;;;;;7.20;2.60;;;;;;;2.48;100.00;98667.94;4992760;28;20213;-62
2021/12/05 02:59:22;;;;;;;8.13;2.70;;;;;;;2.47;100.00;98668.81;4993132;28;20325;-62
2021/12/05 03:01:55;;;;;;;10.80;2.90;;;;;;;2.50;100.00;98674.59;4996115;28;20229;-62
2021/12/05 03:04:23;;;;;;;10.10;2.70;;;;;;;2.64;100.00;98673.16;5007740;28;20188;-63
2021/12/05 03:06:52;;;;;;;6.13;2.57;;;;;;;2.61;99.96;98675.84;4993089;28;20172;-62
2021/12/05 03:09:20;;;;;;;7.33;2.47;;;;;;;2.60;100.00;98667.38;4991561;28;20218;-62
2021/12/05 03:11:46;;;;;;;8.67;2.13;;;;;;;2.49;100.00;98670.41;4997565;28;20224;-62
2021/12/05 03:14:12;;;;;;;11.03;2.60;;;;;;;2.48;100.00;98673.84;4993782;28;20184;-62
2021/12/05 03:16:39;;;;;;;9.93;2.57;;;;;;;2.45;100.00;98671.44;5007043;28;20195;-63
2021/12/05 03:19:07;;;;;;;9.10;2.83;;;;;;;2.66;100.00;98673.91;4991853;28;20230;-63
2021/12/05 03:21:34;;;;;;;10.73;2.50;;;;;;;2.40;100.00;98661.47;5004994;28;20238;-62
2021/12/05 03:24:00;;;;;;;5.30;2.47;;;;;;;2.44;100.00;98667.25;4999040;28;20212;-62
2021/12/05 03:26:29;;;;;;;9.63;2.70;;;;;;;2.40;100.00;98668.28;4992408;28;20215;-62
2021/12/05 03:28:57;;;;;;;9.97;2.80;;;;;;;2.44;100.00;98674.84;4994177;28;20584;-62
2021/12/05 03:31:25;;;;;;;7.60;2.63;;;;;;;2.25;100.00;98667.22;4998897;28;20221;-62
2021/12/05 03:33:51;;;;;;;6.10;2.30;;;;;;;2.14;100.00;98677.03;4977426;28;20184;-62
2021/12/05 03:36:16;;;;;;;10.67;2.83;;;;;;;2.08;100.00;98689.09;4975964;28;20181;-62
2021/12/05 03:38:42;;;;;;;10.60;3.30;;;;;;;2.10;100.00;98674.59;4992197;28;20212;-61
2021/12/05 03:41:10;;;;;;;8.70;2.17;;;;;;;2.07;100.00;98684.06;4983869;28;20252;-61
2021/12/05 03:43:36;;;;;;;6.53;2.90;;;;;;;2.07;100.00;98678.97;4998553;28;20187;-61
2021/12/05 03:46:03;;;;;;;6.20;2.37;;;;;;;2.12;100.00;98691.47;4992080;28;20192;-61
2021/12/05 03:48:32;;;;;;;4.83;2.30;;;;;;;2.16;100.00;98681.13;4992161;28;20238;-61
2021/12/05 03:50:59;;;;;;;11.13;2.70;;;;;;;2.19;100.00;98680.19;4988837;28;20229;-61
2021/12/05 03:53:25;;;;;;;4.83;2.43;;;;;;;2.30;100.00;98678.00;4999839;28;20643;-61
2021/12/05 03:55:53;;;;;;;9.37;2.40;;;;;;;2.33;100.00;98674.50;4992216;28;20607;-61
2021/12/05 03:58:19;;;;;;;5.93;2.20;;;;;;;2.49;100.00;98684.81;4991741;28;20536;-61
2021/12/05 04:00:50;;;;;;;8.10;2.40;;;;;;;2.51;100.00;98673.69;4972080;28;20282;-61
2021/12/05 04:03:17;;;;;;;5.70;2.37;;;;;;;2.60;99.71;98681.81;4991223;28;20267;-61
2021/12/05 04:05:43;;;;;;;5.87;2.07;;;;;;;2.50;99.34;98686.47;4991646;28;20181;-60
2021/12/05 04:08:14;;;;;;;6.83;2.43;;;;;;;2.60;99.35;98681.81;4991856;28;20598;-61
2021/12/05 04:10:43;;;;;;;8.07;2.83;;;;;;;2.67;98.86;98684.00;4986518;28;20225;-59
2021/12/05 04:13:08;;;;;;;4.80;1.93;;;;;;;2.66;99.02;98679.81;5006983;28;20178;-61
2021/12/05 04:15:34;;;;;;;6.93;2.13;;;;;;;2.70;99.12;98677.94;4985073;28;20237;-61
2021/12/05 04:18:00;;;;;;;5.70;2.17;;;;;;;2.77;98.94;98679.31;4990393;28;20210;-60
2021/12/05 04:20:25;;;;;;;4.53;1.90;;;;;;;2.98;98.48;98676.72;4985579;28;20702;-60
2021/12/05 04:22:51;;;;;;;7.00;2.23;;;;;;;2.98;97.76;98674.16;5004533;28;20218;-60
2021/12/05 04:25:18;;;;;;;4.23;1.87;;;;;;;3.04;97.78;98673.88;4991610;28;20174;-60
2021/12/05 04:27:46;;;;;;;6.40;2.10;;;;;;;3.13;97.21;98675.19;5007029;28;20270;-60
2021/12/05 04:30:14;;;;;;;7.03;2.30;;;;;;;3.11;97.48;98666.78;4974060;28;20215;-61
2021/12/05 04:32:40;;;;;;;4.67;2.17;;;;;;;3.04;97.55;98664.53;5010387;28;20635;-63
2021/12/05 04:35:06;;;;;;;6.90;2.27;;;;;;;3.00;97.63;98659.66;4975704;28;20177;-62
2021/12/05 04:37:31;;;;;;;5.97;1.93;;;;;;;2.98;97.60;98649.59;4991471;28;20213;-60
2021/12/05 04:39:57;;;;;;;12.13;1.90;;;;;;;2.69;98.28;98641.59;5006500;28;20735;-61
2021/12/05 04:42:23;;;;;;;9.83;2.60;;;;;;;2.79;98.79;98643.69;4998037;28;20261;-60
2021/12/05 04:44:49;;;;;;;13.23;2.73;;;;;;;2.81;98.62;98644.47;4992809;28;20189;-61
2021/12/05 04:47:14;;;;;;;3.20;1.87;;;;;;;2.84;98.31;98644.31;4991582;28;20180;-60
2021/12/05 04:49:40;;;;;;;5.10;2.10;;;;;;;2.87;98.46;98645.00;4990728;28;20196;-62
2021/12/05 04:52:08;;;;;;;5.17;2.60;;;;;;;2.90;98.34;98649.94;4996798;28;20235;-60
2021/12/05 04:54:33;;;;;;;8.77;2.30;;;;;;;2.85;99.00;98645.97;4990097;28;20236;-61
2021/12/05 04:57:02;;;;;;;8.70;2.80;;;;;;;2.88;99.69;98654.25;4992211;28;20213;-61
2021/12/05 04:59:30;;;;;;;11.47;2.97;;;;;;;2.91;99.83;98658.38;4991750;28;20281;-61
2021/12/05 05:01:59;;;;;;;7.43;2.37;;;;;;;2.90;99.79;98657.56;4996496;28;20331;-61
2021/12/05 05:04:29;;;;;;;6.53;2.93;;;;;;;3.02;99.55;98663.78;4992006;28;20182;-61
2021/12/05 05:07:00;;;;;;;6.40;2.87;;;;;;;3.07;99.35;98668.66;4991908;28;20179;-60
2021/12/05 05:09:25;;;;;;;11.67;3.57;;;;;;;3.01;99.81;98663.84;4991668;28;20280;-60
2021/12/05 05:11:51;;;;;;;7.83;3.60;;;;;;;2.95;100.00;98662.41;4995188;28;20774;-61
2021/12/05 05:14:16;;;;;;;6.80;3.33;;;;;;;3.00;100.00;98660.50;4992273;28;20191;-61
2021/12/05 05:16:43;;;;;;;6.07;3.70;;;;;;;2.97;100.00;98657.28;4991563;28;20388;-61
2021/12/05 05:19:11;;;;;;;8.67;5.43;;;;;;;3.00;100.00;98657.97;4991983;28;20205;-60
2021/12/05 05:27:17;;;;;;;10.37;3.83;;;;;;;3.10;100.00;98663.44;4991881;28;20631;-61
2021/12/05 05:40:35;;;;;;;5.87;3.13;;;;;;;3.19;100.00;98657.09;4988010;28;20308;-60
2021/12/05 05:48:34;;;;;;;7.13;2.93;;;;;;;3.17;100.00;98656.34;4994350;28;20191;-60
2021/12/05 05:51:02;;;;;;;5.40;2.83;;;;;;;3.28;100.00;98660.94;4991699;28;20228;-62
2021/12/05 05:53:27;;;;;;;5.77;2.67;;;;;;;3.37;100.00;98663.84;5001388;28;20186;-63
2021/12/05 05:55:55;;;;;;;9.23;3.30;;;;;;;3.33;100.00;98664.06;4994299;28;20257;-61
2021/12/05 05:58:24;;;;;;;5.87;2.33;;;;;;;3.31;100.00;98665.84;4993447;28;20225;-60
2021/12/05 06:01:03;;;;;;;9.63;2.87;;;;;;;3.15;100.00;98668.28;5002329;28;20244;-61
2021/12/05 06:03:29;;;;;;;5.20;3.07;;;;;;;3.21;100.00;98665.47;5001831;28;20186;-60
2021/12/05 06:05:56;;;;;;;5.37;2.57;;;;;;;3.28;100.00;98666.81;4994056;28;20269;-60
2021/12/05 06:08:25;;;;;;;5.57;2.70;;;;;;;3.23;100.00;98669.56;4994174;28;20239;-61
2021/12/05 06:10:57;;;;;;;7.20;2.23;;;;;;;2.92;100.00;98669.38;4990254;28;20241;-61
2021/12/05 06:13:25;;;;;;;6.97;2.33;;;;;;;2.84;100.00;98677.31;5002717;28;20179;-60
2021/12/05 06:15:51;;;;;;;5.87;2.40;;;;;;;2.96;100.00;98675.94;4994596;28;20198;-60
2021/12/05 06:18:17;;;;;;;5.23;2.63;;;;;;;3.02;100.00;98671.41;4994077;28;20297;-60
2021/12/05 06:20:43;;;;;;;7.43;2.80;;;;;;;2.94;100.00;98677.72;4991443;28;20253;-60
2021/12/05 06:23:10;;;;;;;6.50;2.40;;;;;;;3.09;100.00;98679.56;5014680;28;20300;-61
2021/12/05 06:25:39;;;;;;;8.63;2.37;;;;;;;3.12;100.00;98674.34;4989304;28;20200;-61
2021/12/05 06:28:11;;;;;;;6.47;2.40;;;;;;;3.21;100.00;98675.63;4974505;28;20174;-61
2021/12/05 06:46:24;;;;;;;6.53;2.33;;;;;;;2.85;100.00;98687.44;4993819;28;20175;-61
2021/12/05 06:48:50;;;;;;;3.73;2.20;;;;;;;2.99;100.00;98696.13;4992205;28;20211;-61
2021/12/05 06:51:21;;;;;;;5.10;2.50;;;;;;;2.77;100.00;98701.34;4992616;28;20225;-61
2021/12/05 06:53:47;;;;;;;5.37;1.80;;;;;;;2.78;100.00;98703.84;4998332;28;20597;-62
2021/12/05 06:56:13;;;;;;;6.53;2.30;;;;;;;2.77;100.00;98706.41;4993064;28;20690;-62
2021/12/05 06:58:39;;;;;;;7.67;2.80;;;;;;;2.86;100.00;98708.56;4993101;28;20200;-62
2021/12/05 07:01:08;;;;;;;4.47;2.00;;;;;;;2.97;100.00;98708.91;4990982;28;20299;-61
2021/12/05 07:03:35;;;;;;;6.50;2.20;;;;;;;3.03;100.00;98712.88;4999692;28;20174;-61
2021/12/05 07:06:12;;;;;;;8.60;2.63;;;;;;;3.13;100.00;98715.84;4992565;28;20186;-61
2021/12/05 07:08:40;;;;;;;6.33;2.07;;;;;;;3.15;100.00;98725.03;4990486;28;20675;-61
2021/12/05 07:18:48;;;;;;;7.80;2.10;;;;;;;2.96;100.00;98724.22;4992131;28;20202;-61
2021/12/05 07:26:44;;;;;;;6.83;1.90;;;;;;;3.04;100.00;98747.56;4992108;28;20190;-60
2021/12/05 07:40:23;;;;;;;6.30;2.50;;;;;;;2.71;100.00;98769.28;4983358;28;20271;-61
2021/12/05 07:42:58;;;;;;;8.13;2.13;;;;;;;2.57;100.00;98769.91;5009211;28;20265;-61
2021/12/05 07:45:29;;;;;;;4.57;1.63;;;;;;;2.61;100.00;98769.78;4983825;28;20257;-60
2021/12/05 07:47:55;;;;;;;4.57;1.87;;;;;;;2.60;100.00;98770.66;4992288;28;20192;-61
2021/12/05 07:50:33;;;;;;;5.83;2.43;;;;;;;2.47;100.00;98766.13;4967419;28;20207;-62
2021/12/05 07:53:06;;;;;;;7.50;3.03;;;;;;;2.36;100.00;98771.63;4991449;28;20541;-60
2021/12/05 07:55:38;;;;;;;3.20;1.80;;;;;;;2.40;100.00;98773.16;4991580;28;20213;-61
2021/12/05 07:58:23;;;;;;;2.60;2.17;;;;;;;2.44;100.00;98778.91;4991951;28;20249;-61
2021/12/05 08:01:16;;;;;;;5.77;2.00;;;;;;;2.42;100.00;98781.53;4971642;28;20952;-60
2021/12/05 08:14:43;;;;;;;4.27;2.00;;;;;;;2.42;100.00;98788.34;4972610;28;20241;-61
2021/12/05 08:17:16;;;;;;;4.60;2.27;;;;;;;2.52;100.00;98788.78;4992550;28;20228;-61
2021/12/05 08:19:41;;;;;;;3.00;1.80;;;;;;;2.58;100.00;98796.13;4991681;28;20197;-60
2021/12/05 08:22:07;;;;;;;3.13;1.67;;;;;;;2.60;100.00;98794.31;4996976;28;20225;-61
2021/12/05 08:24:34;;;;;;;4.83;2.40;;;;;;;2.77;100.00;98793.59;4991590;28;20268;-61
2021/12/05 08:27:01;;;;;;;4.77;2.17;;;;;;;2.78;100.00;98797.81;4991908;28;20531;-61
2021/12/05 08:29:35;;;;;;;6.70;2.17;;;;;;;2.90;100.00;98799.81;4991528;28;20569;-61
2021/12/05 08:32:55;;;;;;;2.03;1.93;;;;;;;2.89;100.00;98800.69;4961571;28;20297;-60
2021/12/05 08:35:16;;;;;;;2.43;1.67;;;;;;;2.83;100.00;98808.56;4990067;28;20253;-60
2021/12/05 08:38:00;;;;;;;3.33;1.70;;;;;;;2.70;100.00;98800.66;4993334;28;20211;-60
2021/12/05 08:41:08;;;;;;;3.13;1.73;;;;;;;2.64;100.00;98797.56;4983461;28;20325;-61
2021/12/05 08:43:43;;;;;;;3.37;1.70;;;;;;;2.69;100.00;98798.19;5000410;28;20682;-60
2021/12/05 09:08:26;;;;;;;10.20;3.03;;;;;;;2.77;100.00;98796.16;5009611;28;20181;-61
2021/12/05 09:24:38;;;;;;;5.37;2.10;;;;;;;4.32;99.40;98806.84;5018034;28;20194;-60
2021/12/05 09:30:32;;;;;;;3.23;1.73;;;;;;;4.69;97.41;98805.78;5024820;28;20582;-61
2021/12/05 10:03:09;;;;;;;8.07;2.00;;;;;;;5.43;91.45;98818.97;4987043;28;20311;-61
2021/12/05 10:08:45;;;;;;;3.43;1.93;;;;;;;4.96;92.67;98824.84;5014698;28;20200;-61
2021/12/05 10:11:29;;;;;;;4.07;1.73;;;;;;;5.28;92.78;98829.97;5002954;28;20256;-61
2021/12/05 10:17:04;;;;;;;3.03;1.63;;;;;;;5.16;89.63;98823.81;4993239;28;20677;-63
2021/12/05 10:37:12;;;;;;;1.53;1.23;;;;;;;5.37;88.36;98816.75;5010476;28;20218;-59
2021/12/05 10:39:39;;;;;;;2.33;1.37;;;;;;;5.05;87.78;98815.88;4992043;28;20203;-61
2021/12/05 10:42:42;;;;;;;2.20;1.60;;;;;;;5.01;90.02;98820.31;4980715;28;20686;-63
2021/12/05 10:45:10;;;;;;;2.17;1.47;;;;;;;4.98;88.98;98818.75;4991097;28;20183;-61
2021/12/05 10:47:45;;;;;;;2.40;1.50;;;;;;;5.23;89.48;98814.91;4991233;28;20192;-61
2021/12/05 10:50:31;;;;;;;1.90;1.47;;;;;;;5.37;87.54;98816.75;4983603;28;20257;-61
2021/12/05 10:53:21;;;;;;;3.60;1.50;;;;;;;5.71;86.40;98814.91;4999552;28;20548;-60
2021/12/05 10:56:01;;;;;;;3.47;1.40;;;;;;;5.61;86.28;98806.13;5011588;28;20191;-61
2021/12/05 10:58:54;;;;;;;3.07;1.30;;;;;;;6.11;84.77;98810.13;4996535;28;20286;-61
2021/12/05 11:01:22;;;;;;;3.53;1.43;;;;;;;6.11;82.42;98807.59;4977402;28;20236;-61
2021/12/05 11:03:51;;;;;;;2.97;1.43;;;;;;;6.05;82.59;98810.50;4996280;28;20258;-61
2021/12/05 11:06:22;;;;;;;3.77;1.50;;;;;;;6.07;83.43;98801.03;5011181;28;20608;-62
2021/12/05 11:08:53;;;;;;;2.50;1.37;;;;;;;6.15;83.38;98798.03;4997993;28;20632;-61
2021/12/05 11:11:19;;;;;;;2.63;1.23;;;;;;;6.27;80.94;98791.41;5001944;28;20254;-61
2021/12/05 11:13:45;;;;;;;2.70;1.70;;;;;;;6.33;79.85;98788.50;5011881;28;20209;-62
2021/12/05 11:16:31;;;;;;;2.83;1.40;;;;;;;6.67;78.78;98789.06;5012541;28;20186;-62
2021/12/05 11:18:57;;;;;;;4.13;1.67;;;;;;;6.87;76.62;98795.56;5013046;28;20205;-61
2021/12/05 11:21:34;;;;;;;2.77;1.53;;;;;;;6.78;76.60;98791.81;5013171;28;20280;-61
2021/12/05 11:24:25;;;;;;;3.27;1.60;;;;;;;6.29;75.52;98789.59;5013821;28;20219;-60
2021/12/05 11:27:20;;;;;;;3.10;1.63;;;;;;;6.00;78.29;98788.69;5004906;28;20294;-62
2021/12/05 11:30:00;;;;;;;4.20;1.60;;;;;;;5.96;78.99;98793.94;5008843;28;20209;-62
2021/12/05 11:32:39;;;;;;;2.50;1.80;;;;;;;5.69;80.55;98786.09;5001460;28;20365;-62
2021/12/05 11:35:16;;;;;;;1.73;1.40;;;;;;;5.76;81.09;98789.94;5030553;28;20173;-62
2021/12/05 11:38:02;;;;;;;4.50;1.77;;;;;;;5.53;82.13;98792.94;5027962;28;20682;-61
2021/12/05 11:40:44;;;;;;;4.20;1.53;;;;;;;5.35;82.50;98795.59;5007499;28;20232;-62
2021/12/05 11:43:14;;;;;;;3.70;1.87;;;;;;;5.60;84.28;98784.88;5014134;28;20269;-62
2021/12/05 11:45:53;;;;;;;4.00;1.77;;;;;;;5.40;83.54;98792.81;5011390;28;20187;-62
2021/12/05 11:48:23;;;;;;;3.10;1.40;;;;;;;5.42;83.46;98789.28;5011520;28;20179;-61
2021/12/05 11:50:49;;;;;;;2.77;1.30;;;;;;;5.59;83.30;98790.06;5011127;28;20275;-62
2021/12/05 11:53:15;;;;;;;3.43;1.83;;;;;;;5.79;83.50;98787.25;5022743;28;20259;-61
2021/12/05 11:55:41;;;;;;;3.87;1.50;;;;;;;5.71;82.14;98789.38;5013847;28;20181;-60
2021/12/05 11:58:17;;;;;;;3.07;1.60;;;;;;;5.71;81.75;98789.38;5013802;28;20213;-60
2021/12/05 12:00:43;;;;;;;2.30;1.43;;;;;;;5.79;81.48;98794.91;4988921;28;20231;-59
2021/12/05 12:03:08;;;;;;;1.40;1.30;;;;;;;5.35;81.56;98795.59;5003220;28;20209;-61
2021/12/05 12:05:37;;;;;;;3.40;1.40;;;;;;;5.50;82.58;98799.84;5011871;28;20178;-61
2021/12/05 12:08:12;;;;;;;1.70;1.37;;;;;;;5.34;82.83;98792.22;5012335;28;20183;-61
2021/12/05 12:10:50;;;;;;;4.23;1.60;;;;;;;5.39;82.86;98784.31;5001500;28;20311;-61
2021/12/05 12:13:19;;;;;;;2.27;1.10;;;;;;;5.55;82.11;98788.59;5012927;28;20178;-60
2021/12/05 12:15:47;;;;;;;1.30;1.10;;;;;;;5.59;81.03;98779.88;5000968;28;20226;-61
2021/12/05 12:18:24;;;;;;;1.40;1.30;;;;;;;5.45;80.32;98780.63;5011600;28;20208;-61
2021/12/05 12:20:50;;;;;;;3.07;1.40;;;;;;;5.27;80.55;98778.16;5001076;28;20229;-61
2021/12/05 12:23:17;;;;;;;3.07;1.70;;;;;;;4.95;81.65;98783.25;5009920;28;20179;-62
2021/12/05 12:25:44;;;;;;;3.50;1.30;;;;;;;5.13;82.44;98783.97;5011529;28;20548;-61
2021/12/05 12:28:11;;;;;;;2.50;1.50;;;;;;;5.05;82.40;98787.84;5011483;28;20179;-62
2021/12/05 12:30:40;;;;;;;1.97;1.40;;;;;;;4.97;83.08;98789.09;4995566;28;20262;-61
2021/12/05 12:33:25;;;;;;;4.17;1.33;;;;;;;5.06;83.59;98792.03;5005926;28;20189;-61
2021/12/05 12:35:51;;;;;;;6.07;2.00;;;;;;;5.22;83.47;98787.81;4991250;28;20640;-62
2021/12/05 12:38:23;;;;;;;2.67;1.60;;;;;;;5.19;83.14;98787.94;5001903;28;20226;-61
2021/12/05 12:40:55;;;;;;;3.70;1.40;;;;;;;5.23;84.69;98797.06;5000323;28;20244;-63
2021/12/05 12:43:39;;;;;;;3.80;1.57;;;;;;;4.67;86.15;98789.75;5011403;28;20194;-63
2021/12/05 12:46:23;;;;;;;3.67;1.63;;;;;;;4.73;87.68;98783.53;5011842;28;20202;-62
2021/12/05 12:48:52;;;;;;;3.70;1.57;;;;;;;4.64;88.06;98792.47;5013130;28;20655;-60
2021/12/05 12:51:46;;;;;;;2.97;1.80;;;;;;;4.77;88.45;98784.22;4985048;28;20238;-63
2021/12/05 12:54:32;;;;;;;2.93;1.70;;;;;;;4.87;87.04;98776.91;5008258;28;20187;-61
2021/12/05 12:57:04;;;;;;;1.83;1.37;;;;;;;5.04;87.10;98778.59;5010950;28;20208;-60
2021/12/05 12:59:34;;;;;;;3.73;1.77;;;;;;;5.19;85.08;98774.41;5012780;28;20335;-60
2021/12/05 13:10:27;;;;;;;4.60;1.83;;;;;;;5.74;81.19;98784.13;5001194;28;20867;-61
2021/12/05 13:12:57;;;;;;;1.20;1.10;;;;;;;5.90;76.87;98786.63;5010540;28;20216;-60
2021/12/05 13:15:40;;;;;;;0.77;0.70;;;;;;;5.94;74.76;98792.38;5010530;28;20177;-61
2021/12/05 13:18:08;;;;;;;3.33;1.40;;;;;;;5.98;73.77;98797.25;5010821;28;20204;-63
2021/12/05 13:20:42;;;;;;;1.60;0.93;;;;;;;6.02;74.13;98786.91;5005150;28;20264;-62
2021/12/05 13:23:13;;;;;;;1.23;1.00;;;;;;;5.80;73.66;98791.44;5021117;28;20227;-62
2021/12/05 13:26:04;;;;;;;1.50;0.90;;;;;;;5.70;74.23;98794.59;5009511;28;20208;-61
2021/12/05 13:28:31;;;;;;;1.43;0.90;;;;;;;5.93;75.07;98796.66;5010652;28;20834;-59
2021/12/05 13:30:58;;;;;;;1.37;1.03;;;;;;;5.77;74.35;98799.25;5019302;28;20231;-60
2021/12/05 13:33:30;;;;;;;1.57;0.90;;;;;;;5.90;73.23;98798.56;5008527;28;20206;-61
2021/12/05 13:35:58;;;;;;;1.13;1.03;;;;;;;6.00;73.72;98806.56;5025980;28;20803;-62
2021/12/05 13:38:39;;;;;;;2.37;1.33;;;;;;;5.76;74.33;98796.78;5023810;28;20267;-62
2021/12/05 13:44:58;;;;;;;2.90;1.10;;;;;;;5.46;75.89;98803.50;4950430;28;20223;-62
2021/12/05 13:47:29;;;;;;;2.50;1.00;;;;;;;5.58;78.21;98812.22;4950337;28;20562;-61
2021/12/05 13:53:49;;;;;;;2.57;1.20;;;;;;;5.79;79.23;98815.31;5010659;28;20236;-61
2021/12/05 13:56:23;;;;;;;2.60;0.83;;;;;;;5.85;78.21;98818.44;5013921;28;20599;-62
2021/12/05 13:58:49;;;;;;;1.20;1.10;;;;;;;6.06;77.46;98827.47;5012873;28;20221;-61
2021/12/05 14:01:25;;;;;;;1.03;0.90;;;;;;;6.09;77.59;98826.47;5003770;28;20244;-61
2021/12/05 14:03:50;;;;;;;2.53;1.10;;;;;;;6.28;77.91;98834.72;5015353;28;20633;-62
2021/12/05 14:06:37;;;;;;;1.20;1.10;;;;;;;6.07;77.33;98834.22;5009499;28;20190;-61
2021/12/05 14:09:20;;;;;;;1.27;1.10;;;;;;;5.97;77.17;98841.53;4974739;28;20262;-61
2021/12/05 14:11:55;;;;;;;1.20;1.10;;;;;;;5.78;77.62;98831.53;4970107;28;20633;-61
2021/12/05 14:14:30;;;;;;;1.87;1.50;;;;;;;5.76;78.34;98835.88;4994193;28;20182;-62
2021/12/05 14:16:58;;;;;;;1.10;1.00;;;;;;;5.54;78.54;98837.97;4994653;28;20653;-61
2021/12/05 14:19:30;;;;;;;1.60;1.03;;;;;;;5.54;78.13;98843.88;4996016;28;20170;-61
2021/12/05 14:21:58;;;;;;;2.33;1.23;;;;;;;5.48;78.12;98849.31;4985692;28;20248;-61
2021/12/05 14:24:27;;;;;;;1.43;1.30;;;;;;;5.43;77.83;98856.38;5001833;28;20203;-61
2021/12/05 14:26:56;;;;;;;2.00;1.30;;;;;;;5.32;78.71;98849.31;4994459;28;20172;-62
2021/12/05 14:29:26;;;;;;;1.87;1.37;;;;;;;5.31;79.31;98858.69;4993409;28;20176;-61
2021/12/05 14:31:58;;;;;;;2.37;1.40;;;;;;;5.47;79.05;98855.31;4983053;28;20227;-61
2021/12/05 14:34:25;;;;;;;1.83;1.30;;;;;;;5.52;79.36;98863.56;4993935;28;20907;-62
2021/12/05 14:37:02;;;;;;;1.40;1.30;;;;;;;5.61;78.39;98857.94;4993742;28;20193;-61
2021/12/05 14:39:30;;;;;;;2.70;1.90;;;;;;;5.73;77.97;98870.94;4993306;28;20206;-61
2021/12/05 14:42:01;;;;;;;3.80;1.97;;;;;;;5.77;78.29;98882.66;4982717;28;20712;-61
2021/12/05 14:44:27;;;;;;;2.40;1.20;;;;;;;5.27;80.40;98887.81;4994343;28;20241;-60
2021/12/05 14:46:56;;;;;;;1.30;1.07;;;;;;;4.94;82.42;98898.81;4976542;28;20299;-62
2021/12/05 14:57:17;;;;;;;1.27;1.10;;;;;;;4.61;89.40;98909.78;3339769;26;20305;-61
2021/12/05 14:59:45;;;;;;;3.00;0.90;;;;;;;4.63;89.16;98912.28;5005379;28;20214;-61
2021/12/05 15:02:11;;;;;;;1.47;1.30;;;;;;;4.63;88.06;98907.19;4986672;28;20223;-62
2021/12/05 15:04:46;;;;;;;1.60;1.47;;;;;;;4.29;88.07;98911.34;5004456;28;20183;-61
2021/12/05 15:07:12;;;;;;;3.97;2.90;;;;;;;4.47;87.68;98914.75;5012601;28;20178;-61
2021/12/05 15:09:40;;;;;;;6.97;4.40;;;;;;;4.33;88.32;98911.13;4994798;28;20571;-61
2021/12/05 15:12:14;;;;;;;4.97;2.90;;;;;;;4.44;88.18;98917.41;4984588;28;20258;-61
2021/12/05 15:14:43;;;;;;;2.97;2.47;;;;;;;4.43;88.38;98925.94;4990012;28;20187;-61
2021/12/05 15:17:14;;;;;;;1.97;1.67;;;;;;;4.15;89.51;98929.81;4995982;28;20191;-60
2021/12/05 15:19:44;;;;;;;2.47;2.10;;;;;;;4.32;89.87;98939.22;4993751;28;20196;-60
2021/12/05 15:22:12;;;;;;;2.30;1.87;;;;;;;4.41;89.27;98943.03;4983384;28;20238;-60
2021/12/05 15:24:38;;;;;;;2.90;2.03;;;;;;;4.44;89.00;98947.97;4993801;28;20255;-62
2021/12/05 15:27:11;;;;;;;3.33;2.63;;;;;;;4.51;90.20;98947.63;4993155;28;20178;-62
2021/12/05 15:29:37;;;;;;;4.17;2.50;;;;;;;4.30;90.81;98959.63;4992278;28;20672;-62
2021/12/05 15:32:03;;;;;;;2.90;2.30;;;;;;;4.15;93.28;98958.63;4982018;28;20238;-61
2021/12/05 15:34:33;;;;;;;2.30;2.10;;;;;;;4.35;93.31;98967.91;4992788;28;20179;-62
2021/12/05 15:37:05;;;;;;;3.93;1.90;;;;;;;4.41;93.80;98971.88;4994152;28;20195;-61
2021/12/05 15:39:31;;;;;;;3.77;2.40;;;;;;;4.57;92.29;98971.97;4992262;28;20600;-62
2021/12/05 15:41:58;;;;;;;2.50;2.30;;;;;;;4.47;91.68;98970.78;4981067;28;20231;-62
2021/12/05 15:44:36;;;;;;;1.87;1.77;;;;;;;4.47;92.05;98975.84;4990969;28;20624;-61
2021/12/05 15:47:17;;;;;;;2.57;2.37;;;;;;;4.28;93.22;98971.63;4975001;28;20191;-62
2021/12/05 15:50:11;;;;;;;2.87;2.00;;;;;;;4.45;93.54;98980.19;4991844;28;20579;-61
2021/12/05 15:52:39;;;;;;;2.97;2.50;;;;;;;4.44;93.80;98976.00;4965157;28;20214;-62
2021/12/05 15:55:08;;;;;;;3.13;2.50;;;;;;;4.43;94.21;98977.72;4992059;28;20727;-61
2021/12/05 15:57:39;;;;;;;2.43;2.20;;;;;;;4.50;93.92;98978.25;4997228;28;20202;-61
2021/12/05 16:00:29;;;;;;;1.90;1.80;;;;;;;4.52;93.46;98982.38;4971278;28;20210;-63
2021/12/05 16:03:08;;;;;;;3.97;2.00;;;;;;;4.08;95.08;98981.91;4980068;28;20229;-63
2021/12/05 16:05:35;;;;;;;4.67;1.60;;;;;;;3.93;96.10;98991.06;4964098;28;20183;-60
2021/12/05 16:08:10;;;;;;;3.13;2.03;;;;;;;3.90;96.35;98997.09;4986813;28;20782;-63
2021/12/05 16:10:40;;;;;;;5.90;4.60;;;;;;;4.07;96.37;99005.69;4963902;28;20242;-60
2021/12/05 16:13:18;;;;;;;2.80;2.40;;;;;;;4.24;95.69;99004.94;4953925;28;20187;-61
2021/12/05 16:15:47;;;;;;;2.93;2.37;;;;;;;4.42;95.50;99001.53;4973797;28;20223;-60
2021/12/05 16:18:13;;;;;;;2.80;1.80;;;;;;;4.41;94.73;98991.44;4991336;28;20198;-60
2021/12/05 16:20:45;;;;;;;3.33;2.47;;;;;;;4.27;93.62;98994.63;4982017;28;20244;-60
2021/12/05 16:23:12;;;;;;;10.40;7.63;;;;;;;4.26;93.66;99003.16;4974823;28;20214;-60
2021/12/05 16:25:45;;;;;;;10.43;8.00;;;;;;;4.14;94.17;98999.44;4991681;28;20206;-60
2021/12/05 16:28:12;;;;;;;8.30;5.67;;;;;;;4.11;95.11;99015.66;4991965;28;20203;-60
2021/12/05 16:30:47;;;;;;;7.93;6.00;;;;;;;4.20;95.71;99009.34;4961534;28;20290;-61
2021/12/05 16:33:15;;;;;;;7.27;6.03;;;;;;;4.40;95.42;99012.69;4990771;28;20186;-60
2021/12/05 16:35:46;;;;;;;5.80;3.37;;;;;;;4.42;94.42;99014.25;4991651;28;20186;-60
2021/12/05 16:38:18;;;;;;;4.13;3.73;;;;;;;4.43;94.15;99017.63;4991760;28;20678;-63
2021/12/05 16:40:57;;;;;;;6.27;3.90;;;;;;;4.44;93.39;99021.81;4981219;28;20239;-61
2021/12/05 16:43:24;;;;;;;6.83;3.57;;;;;;;4.57;93.76;99029.72;4991099;28;20190;-61
2021/12/05 16:45:55;;;;;;;3.90;3.13;;;;;;;4.48;94.09;99029.25;4973324;28;20193;-63
2021/12/05 16:48:20;;;;;;;3.40;3.10;;;;;;;4.56;94.20;99021.25;4990056;28;20669;-63
2021/12/05 16:50:46;;;;;;;4.07;3.20;;;;;;;4.35;93.76;99026.47;4975875;28;20291;-63
2021/12/05 16:53:13;;;;;;;6.17;2.80;;;;;;;4.06;95.11;99037.13;4977840;28;20198;-63
2021/12/05 16:55:44;;;;;;;5.27;3.60;;;;;;;3.92;96.10;99030.09;4984167;28;20179;-61
2021/12/05 16:58:17;;;;;;;4.80;3.67;;;;;;;4.16;95.65;99034.09;4973448;28;20690;-61
2021/12/05 17:00:50;;;;;;;4.70;3.43;;;;;;;4.15;95.70;99032.44;4972426;28;20662;-61
2021/12/05 17:03:19;;;;;;;5.57;3.67;;;;;;;4.26;95.78;99038.78;4978383;28;20187;-61
2021/12/05 17:05:48;;;;;;;5.77;4.13;;;;;;;4.23;95.61;99034.66;4984120;28;20554;-62
2021/12/05 17:08:27;;;;;;;6.37;3.60;;;;;;;4.17;95.33;99043.41;4983677;28;20226;-61
2021/12/05 17:11:02;;;;;;;5.03;3.43;;;;;;;4.12;95.58;99047.03;4961564;28;20283;-61
2021/12/05 17:13:40;;;;;;;3.67;2.97;;;;;;;4.18;95.81;99039.97;4963083;28;20278;-63